Time;durP1;ratioP1;P1;durP2;ratioP2;P2;SDS_P1;SDS_P2;PMS_P1;PMS_P2;Temp;Humidity;BMP_temperature;BMP_pressure;BME280_temperature;BME280_humidity;BME280_pressure;Samples;Min_cycle;Max_cycle;Signal;HPM_P1;HPM_P2
2021/03/04 00:00:40;;;;;;;28.08;11.15;;;5.10;89.90;;;;;;5024456;28;20037;-63
2021/03/04 00:03:07;;;;;;;35.38;12.75;;;5.10;88.90;;;;;;5027350;28;20046;-62
2021/03/04 00:05:35;;;;;;;40.22;13.57;;;5.10;89.40;;;;;;5028191;28;20044;-62
2021/03/04 00:08:03;;;;;;;31.15;13.35;;;5.00;88.10;;;;;;5022942;28;20042;-62
2021/03/04 00:10:29;;;;;;;28.83;11.57;;;5.00;88.40;;;;;;5027816;28;20095;-62
2021/03/04 00:12:57;;;;;;;30.45;11.43;;;5.00;87.60;;;;;;5027076;28;20092;-62
2021/03/04 00:15:27;;;;;;;28.15;10.82;;;4.90;86.60;;;;;;5024917;28;20037;-62
2021/03/04 00:17:53;;;;;;;29.77;9.48;;;4.90;86.30;;;;;;5027562;28;20037;-62
2021/03/04 00:20:26;;;;;;;27.02;11.05;;;4.80;86.10;;;;;;5026459;28;20103;-62
2021/03/04 00:22:53;;;;;;;28.55;10.90;;;4.80;87.20;;;;;;5026877;28;20068;-65
2021/03/04 00:25:22;;;;;;;32.55;10.38;;;4.80;88.10;;;;;;5025468;28;20572;-62
2021/03/04 00:27:49;;;;;;;25.02;9.27;;;4.80;87.40;;;;;;5024815;28;20042;-62
2021/03/04 00:30:17;;;;;;;28.17;9.52;;;4.80;86.90;;;;;;5026867;28;20083;-61
2021/03/04 00:32:44;;;;;;;23.90;9.52;;;4.80;86.90;;;;;;5011477;28;20056;-62
2021/03/04 00:35:12;;;;;;;23.52;8.88;;;4.80;88.20;;;;;;5024165;28;20058;-62
2021/03/04 00:37:39;;;;;;;24.70;9.13;;;4.80;88.50;;;;;;5025539;28;20029;-62
2021/03/04 00:40:08;;;;;;;20.63;8.88;;;4.80;88.30;;;;;;5022519;28;20451;-62
2021/03/04 00:42:35;;;;;;;23.20;9.63;;;4.70;87.90;;;;;;5028862;28;20068;-62
2021/03/04 00:45:10;;;;;;;24.02;9.35;;;4.70;88.80;;;;;;5013125;28;20038;-62
2021/03/04 00:47:37;;;;;;;21.90;9.10;;;4.80;87.90;;;;;;5032906;28;20033;-62
2021/03/04 00:50:06;;;;;;;29.10;9.85;;;4.80;88.40;;;;;;5032792;28;20033;-62
2021/03/04 00:52:32;;;;;;;27.83;11.07;;;4.80;88.50;;;;;;5031172;28;20045;-62
2021/03/04 00:54:59;;;;;;;22.55;9.68;;;4.70;88.10;;;;;;5030963;28;20053;-62
2021/03/04 00:57:25;;;;;;;30.42;10.60;;;4.70;88.80;;;;;;5032228;28;20802;-62
2021/03/04 00:59:52;;;;;;;25.25;10.82;;;4.70;89.40;;;;;;5031674;28;20548;-63
2021/03/04 01:02:18;;;;;;;23.00;10.40;;;4.70;89.80;;;;;;5031963;28;20041;-62
2021/03/04 01:04:45;;;;;;;31.35;11.05;;;4.70;89.60;;;;;;5023341;28;20052;-62
2021/03/04 01:07:11;;;;;;;26.35;10.38;;;4.70;90.30;;;;;;5030805;28;20041;-62
2021/03/04 01:09:38;;;;;;;34.65;13.35;;;4.60;90.20;;;;;;5033013;28;20041;-63
2021/03/04 01:12:05;;;;;;;33.22;12.93;;;4.60;90.20;;;;;;5012747;28;20056;-62
2021/03/04 01:14:31;;;;;;;32.95;12.18;;;4.60;90.30;;;;;;5033971;28;20045;-63
2021/03/04 01:16:58;;;;;;;34.25;13.23;;;4.60;90.20;;;;;;5027464;28;20532;-62
2021/03/04 01:19:26;;;;;;;28.52;12.30;;;4.60;90.60;;;;;;5029454;28;20100;-62
2021/03/04 01:21:52;;;;;;;33.10;12.60;;;4.60;90.40;;;;;;5031984;28;20049;-61
2021/03/04 01:24:19;;;;;;;37.42;13.32;;;4.60;90.30;;;;;;5029129;28;20541;-62
2021/03/04 01:26:45;;;;;;;35.15;13.07;;;4.50;90.40;;;;;;5026889;28;20045;-62
2021/03/04 01:29:12;;;;;;;37.85;13.60;;;4.50;90.60;;;;;;5032463;28;20704;-62
2021/03/04 01:31:39;;;;;;;33.17;12.88;;;4.50;90.70;;;;;;5031610;28;20440;-63
2021/03/04 01:34:05;;;;;;;31.52;11.80;;;4.50;90.70;;;;;;5027952;28;20125;-62
2021/03/04 01:36:32;;;;;;;33.03;13.52;;;4.50;90.60;;;;;;5026304;28;20053;-62
2021/03/04 01:38:58;;;;;;;31.52;12.38;;;4.50;90.50;;;;;;5030674;28;20127;-62
2021/03/04 01:41:25;;;;;;;35.35;14.85;;;4.50;90.60;;;;;;5031678;28;20033;-62
2021/03/04 01:43:51;;;;;;;37.40;14.63;;;4.50;90.90;;;;;;5030901;28;20144;-61
2021/03/04 01:46:18;;;;;;;41.10;14.32;;;4.50;90.70;;;;;;5023495;28;20045;-62
2021/03/04 01:48:50;;;;;;;45.28;14.77;;;4.50;90.60;;;;;;5031072;28;20038;-62
2021/03/04 01:51:16;;;;;;;40.38;13.80;;;4.50;90.70;;;;;;5031988;28;20073;-62
2021/03/04 01:53:43;;;;;;;41.20;15.35;;;4.50;90.90;;;;;;5028764;28;20060;-62
2021/03/04 01:56:11;;;;;;;43.20;15.85;;;4.40;91.00;;;;;;5028028;28;20048;-61
2021/03/04 01:58:38;;;;;;;45.75;16.58;;;4.40;91.00;;;;;;5041297;28;20049;-62
2021/03/04 02:04:30;;;;;;;41.58;16.23;;;4.40;91.00;;;;;;5030651;28;20045;-62
2021/03/04 02:07:34;;;;;;;52.15;18.23;;;4.30;90.70;;;;;;5028592;28;20046;-63
2021/03/04 02:10:09;;;;;;;52.70;17.95;;;4.30;90.70;;;;;;5028974;28;20053;-63
2021/03/04 02:13:14;;;;;;;47.97;18.48;;;4.30;91.20;;;;;;5030223;28;20400;-63
2021/03/04 02:15:59;;;;;;;42.72;16.45;;;4.30;91.10;;;;;;5019317;28;20099;-62
2021/03/04 02:18:30;;;;;;;42.55;16.55;;;4.30;91.20;;;;;;5027112;28;20042;-62
2021/03/04 02:21:34;;;;;;;44.40;15.88;;;4.30;91.40;;;;;;5032134;28;20508;-62
2021/03/04 02:24:38;;;;;;;46.17;14.30;;;4.20;91.10;;;;;;5013600;28;20053;-62
2021/03/04 02:27:15;;;;;;;42.97;15.38;;;4.20;90.90;;;;;;5020385;28;20049;-63
2021/03/04 02:29:51;;;;;;;42.97;16.23;;;4.20;91.30;;;;;;5027092;28;20053;-62
2021/03/04 02:32:23;;;;;;;47.92;16.30;;;4.20;91.20;;;;;;5025633;28;20044;-62
2021/03/04 02:34:57;;;;;;;38.05;15.23;;;4.20;91.80;;;;;;5023827;28;20069;-61
2021/03/04 02:37:29;;;;;;;44.05;16.63;;;4.20;91.60;;;;;;5029268;28;20551;-62
2021/03/04 02:39:58;;;;;;;43.80;16.60;;;4.20;91.90;;;;;;5027177;28;20456;-62
2021/03/04 02:42:27;;;;;;;42.65;16.13;;;4.20;91.70;;;;;;5026033;28;20046;-63
2021/03/04 02:44:56;;;;;;;46.25;16.85;;;4.20;91.10;;;;;;5024583;28;20549;-61
2021/03/04 02:47:24;;;;;;;49.40;19.27;;;4.20;91.60;;;;;;5021937;28;20538;-62
2021/03/04 02:49:52;;;;;;;45.75;18.63;;;4.10;91.30;;;;;;5030483;28;20059;-62
2021/03/04 02:52:19;;;;;;;47.08;18.27;;;4.10;91.30;;;;;;5031765;28;20045;-63
2021/03/04 02:54:47;;;;;;;48.97;18.10;;;4.10;91.40;;;;;;5028905;28;20057;-62
2021/03/04 02:57:14;;;;;;;48.03;18.15;;;4.10;91.10;;;;;;5029976;28;20060;-63
2021/03/04 02:59:43;;;;;;;52.53;18.75;;;4.00;91.30;;;;;;5026717;28;20045;-63
2021/03/04 03:02:11;;;;;;;47.92;19.13;;;4.00;91.30;;;;;;5028734;28;20037;-62
2021/03/04 03:04:41;;;;;;;55.55;18.27;;;4.00;91.30;;;;;;5029490;28;20554;-63
2021/03/04 03:07:09;;;;;;;50.97;18.92;;;4.10;91.40;;;;;;5027664;28;20045;-61
2021/03/04 03:09:38;;;;;;;48.97;18.33;;;4.00;91.20;;;;;;5024454;28;20046;-62
2021/03/04 03:12:05;;;;;;;51.00;17.55;;;4.00;91.40;;;;;;5007005;28;20107;-62
2021/03/04 03:14:32;;;;;;;55.78;18.15;;;4.00;92.10;;;;;;5027832;28;20041;-62
2021/03/04 03:16:59;;;;;;;47.55;19.08;;;4.00;92.60;;;;;;5027890;28;20488;-62
2021/03/04 03:19:26;;;;;;;45.95;17.45;;;3.90;92.40;;;;;;5013393;28;20061;-63
2021/03/04 03:21:54;;;;;;;50.30;18.67;;;4.00;92.80;;;;;;5028525;28;20048;-62
2021/03/04 03:24:21;;;;;;;51.00;18.33;;;4.00;92.80;;;;;;5027369;28;20147;-61
2021/03/04 03:26:47;;;;;;;50.13;18.25;;;4.00;92.50;;;;;;5028101;28;20047;-62
2021/03/04 03:29:14;;;;;;;47.17;17.48;;;4.00;92.60;;;;;;5020831;28;20037;-63
2021/03/04 03:31:42;;;;;;;47.38;18.08;;;4.00;92.70;;;;;;5029657;28;20037;-62
2021/03/04 03:34:10;;;;;;;53.85;18.45;;;4.00;92.50;;;;;;5030415;28;20062;-63
2021/03/04 03:36:37;;;;;;;53.70;18.98;;;4.00;92.70;;;;;;5030179;28;20112;-62
2021/03/04 03:39:07;;;;;;;42.75;17.63;;;4.00;92.70;;;;;;5027131;28;20037;-62
2021/03/04 03:41:40;;;;;;;46.90;17.63;;;3.90;92.70;;;;;;5027569;28;20052;-63
2021/03/04 03:44:12;;;;;;;49.40;18.45;;;3.90;92.50;;;;;;5031796;28;20049;-62
2021/03/04 03:46:40;;;;;;;38.73;15.47;;;4.00;92.30;;;;;;5032456;28;20037;-63
2021/03/04 03:49:10;;;;;;;40.50;16.65;;;3.90;92.10;;;;;;5016716;28;20033;-63
2021/03/04 03:51:37;;;;;;;42.50;16.80;;;3.90;92.20;;;;;;5029833;28;20042;-63
2021/03/04 03:54:05;;;;;;;43.38;16.70;;;3.90;92.30;;;;;;5029219;28;20049;-62
2021/03/04 03:56:34;;;;;;;40.95;15.90;;;3.90;92.30;;;;;;5029068;28;20049;-62
2021/03/04 03:59:04;;;;;;;39.60;15.18;;;3.90;92.30;;;;;;5026148;28;20045;-62
2021/03/04 04:01:34;;;;;;;39.92;15.75;;;3.90;92.40;;;;;;5026795;28;20054;-61
2021/03/04 04:04:02;;;;;;;36.75;15.50;;;3.90;92.30;;;;;;5030681;28;20124;-62
2021/03/04 04:06:30;;;;;;;40.58;15.73;;;3.90;92.50;;;;;;5028631;28;20041;-63
2021/03/04 04:08:58;;;;;;;34.72;14.13;;;3.90;92.50;;;;;;5028115;28;20041;-63
2021/03/04 04:11:26;;;;;;;38.95;14.45;;;3.80;92.60;;;;;;5026534;28;20492;-62
2021/03/04 04:13:54;;;;;;;39.28;16.73;;;3.80;92.70;;;;;;5031059;28;20519;-62
2021/03/04 04:16:20;;;;;;;44.90;15.90;;;3.80;92.70;;;;;;5029689;28;20052;-62
2021/03/04 04:18:48;;;;;;;35.92;14.75;;;3.80;92.70;;;;;;5028533;28;20060;-62
2021/03/04 04:21:15;;;;;;;43.05;15.73;;;3.80;92.30;;;;;;5029925;28;20041;-61
2021/03/04 04:23:43;;;;;;;40.40;16.17;;;3.80;92.40;;;;;;5031690;28;20049;-63
2021/03/04 04:26:10;;;;;;;38.03;16.00;;;3.80;92.40;;;;;;5023733;28;20072;-62
2021/03/04 04:28:37;;;;;;;39.97;14.63;;;3.80;92.50;;;;;;5027868;28;20041;-62
2021/03/04 04:31:03;;;;;;;42.75;16.58;;;3.80;92.20;;;;;;5028318;28;20156;-62
2021/03/04 04:33:31;;;;;;;40.75;16.23;;;3.80;92.20;;;;;;5028398;28;20057;-62
2021/03/04 04:35:58;;;;;;;40.90;15.68;;;3.80;92.40;;;;;;5029414;28;20033;-62
2021/03/04 04:38:25;;;;;;;40.03;16.15;;;3.80;93.00;;;;;;5026639;28;20049;-62
2021/03/04 04:40:52;;;;;;;44.45;16.17;;;3.80;92.90;;;;;;5026916;28;20046;-61
2021/03/04 04:43:18;;;;;;;35.05;14.50;;;3.70;93.10;;;;;;5028157;28;20092;-62
2021/03/04 04:45:45;;;;;;;51.00;17.13;;;3.70;93.20;;;;;;5029725;28;20040;-62
2021/03/04 04:48:13;;;;;;;41.03;15.70;;;3.70;93.10;;;;;;5019368;28;20103;-62
2021/03/04 04:50:40;;;;;;;39.90;14.93;;;3.60;93.50;;;;;;5028845;28;20042;-62
2021/03/04 04:53:06;;;;;;;38.75;13.85;;;3.70;93.60;;;;;;5022567;28;20046;-63
2021/03/04 04:55:33;;;;;;;34.35;13.15;;;3.70;93.60;;;;;;5025281;28;20064;-62
2021/03/04 04:58:01;;;;;;;42.85;14.00;;;3.70;93.90;;;;;;5031202;28;20045;-62
2021/03/04 05:00:28;;;;;;;32.92;13.38;;;3.70;94.30;;;;;;5025652;28;20046;-62
2021/03/04 05:02:55;;;;;;;32.63;12.88;;;3.70;94.60;;;;;;5011845;28;20052;-62
2021/03/04 05:05:21;;;;;;;34.42;14.02;;;3.70;94.70;;;;;;5029399;28;20049;-62
2021/03/04 05:07:48;;;;;;;36.30;13.48;;;3.80;95.00;;;;;;5028887;28;20033;-63
2021/03/04 05:10:15;;;;;;;34.75;13.45;;;3.80;94.70;;;;;;5027406;28;20103;-63
2021/03/04 05:12:41;;;;;;;34.67;13.40;;;3.80;94.70;;;;;;5030059;28;20049;-63
2021/03/04 05:15:11;;;;;;;32.97;13.57;;;3.90;95.10;;;;;;5027102;28;20052;-63
2021/03/04 05:17:41;;;;;;;34.00;12.50;;;3.80;95.20;;;;;;5028834;28;20045;-62
2021/03/04 05:20:09;;;;;;;32.58;13.13;;;3.80;94.90;;;;;;5030731;28;20124;-63
2021/03/04 05:22:36;;;;;;;32.95;11.73;;;3.80;94.80;;;;;;5015375;28;20111;-62
2021/03/04 05:25:02;;;;;;;33.92;13.02;;;3.90;94.80;;;;;;5030860;28;20409;-62
2021/03/04 05:27:29;;;;;;;30.95;12.68;;;3.90;94.40;;;;;;5031209;28;20038;-62
2021/03/04 05:29:56;;;;;;;32.83;13.75;;;3.90;94.40;;;;;;5031824;28;20041;-62
2021/03/04 05:32:22;;;;;;;32.83;12.60;;;3.90;94.80;;;;;;5030084;28;20466;-62
2021/03/04 05:34:49;;;;;;;29.40;12.70;;;3.90;94.40;;;;;;5007846;28;20084;-62
2021/03/04 05:37:16;;;;;;;31.90;12.82;;;3.90;94.50;;;;;;5029545;28;20042;-61
2021/03/04 05:39:42;;;;;;;28.90;12.35;;;3.90;94.60;;;;;;5032753;28;20725;-61
2021/03/04 05:42:10;;;;;;;27.50;11.77;;;3.90;94.70;;;;;;5032847;28;20033;-62
2021/03/04 05:44:37;;;;;;;31.67;12.23;;;3.90;94.80;;;;;;5031883;28;20034;-62
2021/03/04 05:47:05;;;;;;;32.13;11.73;;;3.90;95.00;;;;;;5032439;28;20793;-62
2021/03/04 05:49:45;;;;;;;38.50;12.73;;;3.90;94.60;;;;;;5032567;28;20602;-62
2021/03/04 05:52:15;;;;;;;33.50;13.40;;;3.90;94.30;;;;;;5013645;28;20053;-62
2021/03/04 05:54:45;;;;;;;41.28;15.50;;;3.90;94.20;;;;;;5027186;28;20057;-62
2021/03/04 05:57:13;;;;;;;42.00;17.08;;;3.90;94.30;;;;;;5032915;28;20045;-62
2021/03/04 05:59:42;;;;;;;48.85;17.85;;;3.90;94.20;;;;;;5032563;28;20508;-62
2021/03/04 06:02:09;;;;;;;46.55;18.20;;;3.90;94.20;;;;;;5030799;28;20538;-62
2021/03/04 06:04:37;;;;;;;33.72;14.07;;;3.90;94.30;;;;;;5030456;28;20049;-63
2021/03/04 06:07:03;;;;;;;30.90;13.13;;;4.00;94.20;;;;;;5030766;28;20422;-61
2021/03/04 06:09:31;;;;;;;24.88;11.40;;;4.00;94.10;;;;;;5032263;28;20161;-63
2021/03/04 06:12:02;;;;;;;36.28;11.95;;;4.10;94.00;;;;;;5033009;28;20046;-63
2021/03/04 06:14:29;;;;;;;30.42;12.15;;;4.10;94.10;;;;;;5031789;28;20111;-63
2021/03/04 06:16:56;;;;;;;31.65;12.57;;;4.10;93.90;;;;;;5031422;28;20045;-62
2021/03/04 06:19:23;;;;;;;31.52;12.65;;;4.10;93.90;;;;;;5031565;28;20049;-62
2021/03/04 06:21:58;;;;;;;33.72;13.40;;;4.10;93.90;;;;;;5029042;28;20037;-62
2021/03/04 06:24:25;;;;;;;31.70;12.25;;;4.20;93.90;;;;;;5028041;28;20049;-62
2021/03/04 06:26:55;;;;;;;35.75;13.52;;;4.20;93.80;;;;;;5030030;28;20046;-62
2021/03/04 06:29:25;;;;;;;32.22;12.73;;;4.30;94.00;;;;;;5031889;28;20410;-63
2021/03/04 06:32:06;;;;;;;38.83;13.43;;;4.30;94.30;;;;;;5029612;28;20046;-63
2021/03/04 06:34:33;;;;;;;37.08;12.30;;;4.40;94.30;;;;;;5010687;28;20057;-62
2021/03/04 06:37:02;;;;;;;37.00;12.85;;;4.40;93.80;;;;;;5032639;28;20571;-62
2021/03/04 06:39:47;;;;;;;30.20;13.10;;;4.50;93.50;;;;;;5026169;28;20049;-62
2021/03/04 06:42:14;;;;;;;29.27;11.50;;;4.50;93.20;;;;;;5027832;28;20057;-62
2021/03/04 06:44:48;;;;;;;29.27;11.82;;;4.60;92.90;;;;;;5029349;28;20518;-61
2021/03/04 06:47:25;;;;;;;35.63;12.90;;;4.60;93.00;;;;;;5029614;28;20068;-61
2021/03/04 06:49:53;;;;;;;29.20;12.00;;;4.60;93.10;;;;;;5030170;28;20065;-62
2021/03/04 06:52:38;;;;;;;27.83;11.65;;;4.60;93.20;;;;;;5023715;28;20041;-63
2021/03/04 06:55:12;;;;;;;29.30;12.50;;;4.60;93.20;;;;;;5019460;28;20405;-62
2021/03/04 06:57:39;;;;;;;36.40;13.75;;;4.60;93.20;;;;;;5030278;28;20052;-62
2021/03/04 07:00:26;;;;;;;35.97;12.23;;;4.70;93.10;;;;;;5029753;28;20048;-62
2021/03/04 07:02:55;;;;;;;34.33;12.27;;;4.80;92.90;;;;;;5027543;28;20060;-62
2021/03/04 07:05:23;;;;;;;35.40;13.15;;;4.80;92.60;;;;;;5029695;28;20665;-62
2021/03/04 07:07:54;;;;;;;32.03;13.20;;;4.90;92.50;;;;;;5030355;28;20045;-63
2021/03/04 07:10:23;;;;;;;29.80;11.85;;;4.90;92.30;;;;;;5025430;28;20037;-63
2021/03/04 07:12:50;;;;;;;35.58;12.25;;;5.00;92.30;;;;;;5028861;28;20045;-63
2021/03/04 07:15:19;;;;;;;31.25;12.98;;;5.10;92.00;;;;;;5029744;28;20048;-62
2021/03/04 07:17:48;;;;;;;43.45;16.83;;;5.20;91.60;;;;;;5029901;28;20076;-62
2021/03/04 07:20:17;;;;;;;37.03;14.55;;;5.20;91.20;;;;;;5026772;28;20099;-62
2021/03/04 07:23:03;;;;;;;33.22;13.50;;;5.30;91.10;;;;;;5029132;28;20053;-63
2021/03/04 07:25:31;;;;;;;34.60;13.77;;;5.40;90.90;;;;;;5031433;28;20065;-62
2021/03/04 07:27:57;;;;;;;34.38;13.05;;;5.40;90.90;;;;;;5030105;28;20048;-62
2021/03/04 07:30:24;;;;;;;33.47;12.75;;;5.50;90.80;;;;;;5027342;28;20041;-63
2021/03/04 07:32:52;;;;;;;28.38;12.05;;;5.60;90.80;;;;;;5026363;28;20096;-62
2021/03/04 07:35:19;;;;;;;33.08;12.90;;;5.60;90.90;;;;;;5026784;28;20148;-63
2021/03/04 07:37:45;;;;;;;39.70;12.32;;;5.70;90.90;;;;;;5030716;28;20041;-62
2021/03/04 07:40:14;;;;;;;39.38;13.85;;;5.70;90.60;;;;;;5030846;28;20095;-62
2021/03/04 07:42:41;;;;;;;42.60;14.43;;;5.80;90.70;;;;;;5026921;28;20269;-62
2021/03/04 07:45:19;;;;;;;37.85;14.30;;;5.90;90.60;;;;;;5028432;28;20037;-63
2021/03/04 07:47:46;;;;;;;30.90;13.23;;;5.90;90.70;;;;;;5028860;28;20053;-62
2021/03/04 07:50:24;;;;;;;31.33;13.38;;;6.00;90.40;;;;;;5030972;28;20145;-63
2021/03/04 07:53:03;;;;;;;33.72;14.20;;;6.00;90.50;;;;;;5028845;28;20056;-62
2021/03/04 07:55:38;;;;;;;32.75;13.75;;;6.10;90.60;;;;;;5028612;28;20041;-63
2021/03/04 07:58:14;;;;;;;44.17;18.42;;;6.20;90.50;;;;;;5028694;28;20055;-62
2021/03/04 08:00:41;;;;;;;46.72;18.80;;;6.20;90.60;;;;;;5029398;28;20073;-62
2021/03/04 08:03:08;;;;;;;44.20;17.05;;;6.20;90.40;;;;;;5027221;28;20049;-62
2021/03/04 08:05:37;;;;;;;61.88;21.88;;;6.10;90.40;;;;;;5027354;28;20052;-61
2021/03/04 08:08:13;;;;;;;49.10;16.73;;;6.10;90.40;;;;;;5028372;28;20037;-62
2021/03/04 08:10:56;;;;;;;36.53;14.95;;;6.20;90.40;;;;;;5031501;28;20049;-62
2021/03/04 08:13:36;;;;;;;35.20;14.18;;;6.20;90.30;;;;;;5031583;28;20029;-62
2021/03/04 08:16:12;;;;;;;33.65;14.07;;;6.20;90.20;;;;;;5027895;28;20045;-62
2021/03/04 08:18:41;;;;;;;28.80;13.13;;;6.40;90.00;;;;;;5024729;28;20136;-62
2021/03/04 08:21:09;;;;;;;34.97;14.02;;;6.50;90.20;;;;;;5032425;28;20049;-63
2021/03/04 08:23:49;;;;;;;30.20;13.30;;;6.60;90.10;;;;;;5024426;28;20061;-62
2021/03/04 08:26:28;;;;;;;35.33;13.82;;;6.80;87.60;;;;;;5028189;28;20033;-62
2021/03/04 08:29:05;;;;;;;32.15;12.13;;;7.00;85.60;;;;;;5018073;28;20057;-62
2021/03/04 08:31:33;;;;;;;30.45;13.77;;;7.10;84.50;;;;;;5031798;28;20613;-62
2021/03/04 08:34:00;;;;;;;29.48;13.70;;;7.20;85.20;;;;;;5022596;28;20045;-62
2021/03/04 08:36:38;;;;;;;32.13;13.65;;;7.30;85.40;;;;;;5023790;28;20042;-62
2021/03/04 08:39:05;;;;;;;36.40;13.77;;;7.50;85.90;;;;;;5028297;28;20527;-62
2021/03/04 08:41:32;;;;;;;36.60;13.48;;;7.60;84.90;;;;;;5028689;28;20045;-63
2021/03/04 08:44:08;;;;;;;28.20;13.30;;;7.70;83.80;;;;;;5027423;28;20053;-62
2021/03/04 08:46:35;;;;;;;30.88;12.80;;;7.80;84.00;;;;;;5027582;28;20048;-63
2021/03/04 08:49:02;;;;;;;28.27;12.05;;;7.90;82.20;;;;;;5028399;28;20493;-62
2021/03/04 08:51:29;;;;;;;26.02;11.02;;;8.10;81.10;;;;;;5023169;28;20074;-62
2021/03/04 08:54:06;;;;;;;26.92;11.43;;;8.10;78.60;;;;;;5026974;28;20068;-62
2021/03/04 08:56:33;;;;;;;28.02;11.63;;;8.20;77.80;;;;;;5024601;28;20037;-62
2021/03/04 08:58:59;;;;;;;26.65;11.30;;;8.30;77.60;;;;;;5034144;28;20046;-61
2021/03/04 09:01:30;;;;;;;27.52;11.15;;;8.40;77.80;;;;;;5031573;28;20053;-63
2021/03/04 09:03:57;;;;;;;34.25;13.07;;;8.50;77.70;;;;;;5028784;28;20510;-63
2021/03/04 09:06:25;;;;;;;29.35;12.45;;;8.60;77.10;;;;;;5029641;28;20048;-63
2021/03/04 09:08:51;;;;;;;40.10;19.65;;;8.80;76.90;;;;;;5031806;28;20606;-63
2021/03/04 09:11:36;;;;;;;35.03;12.90;;;8.90;76.70;;;;;;5032029;28;20150;-62
2021/03/04 09:14:04;;;;;;;27.67;11.50;;;8.90;76.40;;;;;;5031875;28;20675;-62
2021/03/04 09:16:41;;;;;;;28.83;14.23;;;9.10;75.50;;;;;;5029432;28;20081;-62
2021/03/04 09:19:08;;;;;;;48.92;22.52;;;9.20;74.50;;;;;;5028442;28;20048;-63
2021/03/04 09:21:35;;;;;;;38.70;18.90;;;9.30;74.00;;;;;;5011285;28;20088;-62
2021/03/04 09:24:01;;;;;;;35.17;16.10;;;9.30;74.30;;;;;;5027036;28;20360;-63
2021/03/04 09:26:32;;;;;;;37.90;14.23;;;9.40;74.90;;;;;;5024356;28;20477;-63
2021/03/04 09:29:02;;;;;;;35.33;12.60;;;9.50;74.70;;;;;;5022775;28;20412;-63
2021/03/04 09:31:30;;;;;;;29.00;12.93;;;9.60;74.70;;;;;;5029831;28;20045;-63
2021/03/04 09:34:02;;;;;;;32.45;12.38;;;9.70;74.90;;;;;;5028323;28;20050;-62
2021/03/04 09:36:29;;;;;;;29.80;11.60;;;9.80;74.30;;;;;;5010495;28;20552;-63
2021/03/04 09:38:57;;;;;;;31.38;11.77;;;9.80;74.90;;;;;;5029499;28;20041;-63
2021/03/04 09:41:25;;;;;;;27.70;12.05;;;9.80;71.90;;;;;;5009197;28;20528;-63
2021/03/04 09:44:02;;;;;;;31.27;11.85;;;9.80;71.90;;;;;;5027230;28;20404;-62
2021/03/04 09:46:38;;;;;;;31.77;12.90;;;9.80;73.20;;;;;;5024280;28;20203;-62
2021/03/04 09:49:10;;;;;;;31.42;13.40;;;10.00;73.00;;;;;;5027983;28;20408;-63
2021/03/04 09:51:42;;;;;;;26.65;12.32;;;10.10;72.40;;;;;;5029816;28;20037;-63
2021/03/04 09:54:09;;;;;;;29.45;12.70;;;10.10;71.10;;;;;;5028215;28;20049;-62
2021/03/04 09:57:09;;;;;;;29.20;13.30;;;10.30;71.30;;;;;;5028643;28;20079;-63
2021/03/04 09:59:52;;;;;;;34.33;13.80;;;10.30;70.60;;;;;;5025782;28;20042;-64
2021/03/04 10:02:25;;;;;;;33.08;12.95;;;10.40;70.40;;;;;;5026513;28;20029;-63
2021/03/04 10:04:56;;;;;;;34.90;14.02;;;10.50;70.50;;;;;;5026170;28;20034;-63
2021/03/04 10:07:27;;;;;;;33.03;13.88;;;10.60;70.00;;;;;;5026188;28;20045;-61
2021/03/04 10:09:55;;;;;;;31.70;13.40;;;10.70;70.80;;;;;;5028539;28;20550;-62
2021/03/04 10:12:22;;;;;;;30.63;13.43;;;10.80;70.10;;;;;;5024140;28;20044;-62
2021/03/04 10:14:53;;;;;;;31.58;13.93;;;10.90;69.30;;;;;;5026080;28;20075;-61
2021/03/04 10:17:20;;;;;;;34.00;12.10;;;11.00;68.00;;;;;;5026782;28;20050;-63
2021/03/04 10:19:47;;;;;;;25.90;12.05;;;11.10;68.10;;;;;;5026894;28;20572;-62
2021/03/04 10:22:14;;;;;;;28.75;11.82;;;11.20;67.70;;;;;;5027721;28;20049;-62
2021/03/04 10:24:40;;;;;;;26.33;11.35;;;11.20;67.50;;;;;;5024314;28;20037;-62
2021/03/04 10:27:07;;;;;;;30.80;12.43;;;11.20;67.20;;;;;;5029212;28;20057;-62
2021/03/04 10:29:35;;;;;;;30.50;12.30;;;11.30;67.80;;;;;;5028166;28;20095;-62
2021/03/04 10:32:01;;;;;;;29.30;12.13;;;11.40;67.20;;;;;;5026041;28;20056;-62
2021/03/04 10:34:28;;;;;;;28.98;11.90;;;11.50;67.10;;;;;;5026030;28;20516;-62
2021/03/04 10:36:55;;;;;;;32.30;12.55;;;11.50;66.40;;;;;;5026874;28;20122;-62
2021/03/04 10:39:22;;;;;;;31.85;12.98;;;11.60;66.50;;;;;;5028462;28;20115;-63
2021/03/04 10:41:49;;;;;;;29.63;12.13;;;11.80;67.40;;;;;;5019705;28;20068;-63
2021/03/04 10:44:17;;;;;;;31.55;14.02;;;11.80;66.40;;;;;;5018989;28;20498;-63
2021/03/04 10:46:43;;;;;;;35.92;13.40;;;11.90;66.40;;;;;;5028732;28;20041;-63
2021/03/04 10:49:10;;;;;;;34.30;13.75;;;12.00;65.90;;;;;;5027589;28;20555;-62
2021/03/04 10:51:36;;;;;;;29.10;11.98;;;12.00;65.70;;;;;;5029010;28;20041;-63
2021/03/04 10:54:03;;;;;;;29.15;13.18;;;11.80;65.80;;;;;;5027809;28;20056;-62
2021/03/04 10:56:30;;;;;;;26.65;12.52;;;11.80;65.90;;;;;;5026275;28;20042;-65
2021/03/04 10:58:56;;;;;;;30.58;12.30;;;11.90;66.40;;;;;;5016110;28;20037;-62
2021/03/04 11:01:24;;;;;;;31.88;13.60;;;12.00;66.20;;;;;;5022452;28;20449;-68
2021/03/04 11:03:51;;;;;;;33.63;13.65;;;12.00;66.70;;;;;;5022712;28;20107;-62
2021/03/04 11:06:18;;;;;;;30.70;12.35;;;12.10;66.00;;;;;;5020744;28;20053;-63
2021/03/04 11:08:45;;;;;;;27.58;13.00;;;12.20;65.80;;;;;;5023015;28;21247;-63
2021/03/04 11:11:11;;;;;;;26.60;13.95;;;12.30;65.10;;;;;;5023136;28;20083;-64
2021/03/04 11:13:38;;;;;;;29.25;13.40;;;12.30;65.20;;;;;;5024332;28;20042;-63
2021/03/04 11:16:13;;;;;;;35.22;13.13;;;12.40;65.50;;;;;;5013713;28;20569;-64
2021/03/04 11:18:53;;;;;;;30.45;13.38;;;12.40;64.70;;;;;;5022033;28;20053;-64
2021/03/04 11:21:19;;;;;;;30.80;12.80;;;12.50;65.00;;;;;;5023865;28;20041;-63
2021/03/04 11:23:46;;;;;;;27.52;12.48;;;12.50;65.40;;;;;;5026750;28;20053;-63
2021/03/04 11:26:12;;;;;;;33.40;13.02;;;12.50;65.20;;;;;;5026959;28;20131;-63
2021/03/04 11:28:39;;;;;;;29.30;13.20;;;12.50;65.40;;;;;;5025203;28;20060;-63
2021/03/04 11:31:05;;;;;;;29.83;12.75;;;12.60;65.60;;;;;;5025543;28;20116;-62
2021/03/04 11:33:32;;;;;;;38.90;14.82;;;12.60;65.00;;;;;;5019290;28;20073;-63
2021/03/04 11:35:59;;;;;;;31.45;14.02;;;12.60;65.20;;;;;;5018391;28;20072;-62
2021/03/04 11:38:25;;;;;;;29.73;12.18;;;12.60;65.40;;;;;;5024498;28;20062;-62
2021/03/04 11:40:52;;;;;;;30.83;13.63;;;12.70;65.30;;;;;;5023114;28;20052;-64
2021/03/04 11:43:18;;;;;;;34.10;12.13;;;12.70;64.80;;;;;;5026835;28;20056;-66
2021/03/04 11:45:45;;;;;;;38.25;12.00;;;12.80;64.20;;;;;;5023593;28;20041;-66
2021/03/04 11:48:12;;;;;;;30.10;11.82;;;12.80;64.30;;;;;;5025259;28;20140;-65
2021/03/04 11:50:39;;;;;;;28.58;12.15;;;12.90;64.40;;;;;;5027495;28;20485;-65
2021/03/04 11:53:06;;;;;;;34.38;13.68;;;13.00;64.40;;;;;;5024158;28;20042;-64
2021/03/04 11:55:33;;;;;;;33.25;12.20;;;13.00;63.40;;;;;;5007352;28;20065;-63
2021/03/04 11:58:00;;;;;;;27.60;11.65;;;13.00;63.10;;;;;;5023634;28;20123;-63
2021/03/04 12:00:27;;;;;;;29.75;11.65;;;13.10;63.20;;;;;;5021297;28;20041;-63
2021/03/04 12:02:54;;;;;;;32.03;12.23;;;13.20;62.30;;;;;;5025686;28;20051;-63
2021/03/04 12:05:21;;;;;;;29.35;12.25;;;13.20;61.70;;;;;;5023792;28;20042;-63
2021/03/04 12:07:48;;;;;;;33.45;15.07;;;13.30;61.20;;;;;;5020367;28;20096;-63
2021/03/04 12:10:15;;;;;;;32.65;13.20;;;13.30;61.50;;;;;;5026019;28;20132;-64
2021/03/04 12:12:42;;;;;;;35.78;14.68;;;13.20;61.60;;;;;;5026682;28;20052;-63
2021/03/04 12:15:09;;;;;;;31.67;13.35;;;13.20;61.80;;;;;;5023948;28;20074;-64
2021/03/04 12:17:36;;;;;;;30.08;13.20;;;13.20;62.10;;;;;;5024663;28;20480;-63
2021/03/04 12:33:44;;;;;;;31.92;10.90;;;13.60;60.70;;;;;;5033167;28;20044;-64
2021/03/04 12:36:10;;;;;;;30.05;11.65;;;13.60;61.20;;;;;;5052619;28;20037;-63
2021/03/04 12:38:37;;;;;;;29.83;9.95;;;13.70;59.90;;;;;;5051329;28;20055;-63
2021/03/04 12:41:03;;;;;;;26.30;10.10;;;13.90;58.90;;;;;;5048775;28;20049;-63
2021/03/04 12:43:29;;;;;;;31.52;10.70;;;13.90;57.80;;;;;;5051169;28;20053;-62
2021/03/04 12:45:56;;;;;;;24.33;9.68;;;13.90;57.50;;;;;;5051777;28;20059;-64
2021/03/04 12:48:23;;;;;;;29.67;9.57;;;14.00;57.00;;;;;;5052426;28;20569;-63
2021/03/04 12:50:50;;;;;;;32.65;11.35;;;14.00;55.70;;;;;;5050213;28;20048;-64
2021/03/04 12:53:17;;;;;;;59.53;12.68;;;14.10;56.50;;;;;;5053490;28;20417;-63
2021/03/04 12:55:43;;;;;;;24.67;9.52;;;14.20;56.40;;;;;;5052873;28;20103;-65
2021/03/04 12:58:15;;;;;;;24.58;9.60;;;14.20;56.30;;;;;;5050438;28;20110;-63
2021/03/04 13:00:44;;;;;;;25.90;10.45;;;14.30;56.80;;;;;;5045618;28;20063;-65
2021/03/04 13:03:29;;;;;;;29.27;10.65;;;14.30;54.80;;;;;;5050620;28;20049;-64